sensor_id;sensor_type;location;lat;lon;timestamp;temperature;humidity
33508;DHT22;25568;37.410;-122.096;2022-08-23T00:22:20;24.00;74.80
33508;DHT22;25568;37.410;-122.096;2022-08-23T00:24:48;24.40;74.50
33508;DHT22;25568;37.410;-122.096;2022-08-23T00:27:16;24.50;75.10
33508;DHT22;25568;37.410;-122.096;2022-08-23T00:29:45;24.50;75.20
33508;DHT22;25568;37.410;-122.096;2022-08-23T00:32:14;24.50;74.90
33508;DHT22;25568;37.410;-122.096;2022-08-23T00:34:42;24.50;74.80
33508;DHT22;25568;37.410;-122.096;2022-08-23T00:37:11;24.60;74.80
33508;DHT22;25568;37.410;-122.096;2022-08-23T00:39:41;24.60;74.70
33508;DHT22;25568;37.410;-122.096;2022-08-23T00:42:10;24.60;74.80
33508;DHT22;25568;37.410;-122.096;2022-08-23T00:44:52;24.60;74.60
33508;DHT22;25568;37.410;-122.096;2022-08-23T00:47:33;24.60;74.60
33508;DHT22;25568;37.410;-122.096;2022-08-23T00:50:17;24.70;74.80
33508;DHT22;25568;37.410;-122.096;2022-08-23T00:52:49;24.70;74.50
33508;DHT22;25568;37.410;-122.096;2022-08-23T00:55:21;24.70;74.60
33508;DHT22;25568;37.410;-122.096;2022-08-23T00:57:49;24.70;74.50
33508;DHT22;25568;37.410;-122.096;2022-08-23T01:00:18;24.70;74.30
33508;DHT22;25568;37.410;-122.096;2022-08-23T01:02:46;24.80;74.30
33508;DHT22;25568;37.410;-122.096;2022-08-23T01:05:14;24.80;74.40
33508;DHT22;25568;37.410;-122.096;2022-08-23T01:07:44;24.80;74.10
33508;DHT22;25568;37.410;-122.096;2022-08-23T01:10:16;24.90;74.20
33508;DHT22;25568;37.410;-122.096;2022-08-23T01:12:49;24.90;74.20
33508;DHT22;25568;37.410;-122.096;2022-08-23T01:15:20;24.90;74.20
33508;DHT22;25568;37.410;-122.096;2022-08-23T01:17:50;24.90;74.10
33508;DHT22;25568;37.410;-122.096;2022-08-23T01:20:22;24.90;74.10
33508;DHT22;25568;37.410;-122.096;2022-08-23T01:22:52;24.90;74.20
33508;DHT22;25568;37.410;-122.096;2022-08-23T01:25:24;24.90;74.10
33508;DHT22;25568;37.410;-122.096;2022-08-23T01:27:52;24.90;74.20
33508;DHT22;25568;37.410;-122.096;2022-08-23T01:30:21;24.90;74.00
33508;DHT22;25568;37.410;-122.096;2022-08-23T01:32:50;25.00;74.50
33508;DHT22;25568;37.410;-122.096;2022-08-23T01:35:19;25.00;74.20
33508;DHT22;25568;37.410;-122.096;2022-08-23T01:37:48;25.00;74.20
33508;DHT22;25568;37.410;-122.096;2022-08-23T01:40:17;25.00;73.90
33508;DHT22;25568;37.410;-122.096;2022-08-23T01:42:46;25.00;74.00
33508;DHT22;25568;37.410;-122.096;2022-08-23T01:45:14;25.10;74.00
33508;DHT22;25568;37.410;-122.096;2022-08-23T01:47:42;25.10;74.00
33508;DHT22;25568;37.410;-122.096;2022-08-23T01:50:11;25.10;74.00
33508;DHT22;25568;37.410;-122.096;2022-08-23T01:52:39;25.10;73.90
33508;DHT22;25568;37.410;-122.096;2022-08-23T01:55:07;25.10;73.60
33508;DHT22;25568;37.410;-122.096;2022-08-23T01:57:35;25.10;73.00
33508;DHT22;25568;37.410;-122.096;2022-08-23T02:00:06;25.10;73.20
33508;DHT22;25568;37.410;-122.096;2022-08-23T02:02:34;25.20;73.30
33508;DHT22;25568;37.410;-122.096;2022-08-23T02:05:03;25.10;72.90
33508;DHT22;25568;37.410;-122.096;2022-08-23T02:07:31;25.10;73.10
33508;DHT22;25568;37.410;-122.096;2022-08-23T02:09:59;25.10;73.20
33508;DHT22;25568;37.410;-122.096;2022-08-23T02:12:27;25.10;73.20
33508;DHT22;25568;37.410;-122.096;2022-08-23T02:14:56;25.10;73.20
33508;DHT22;25568;37.410;-122.096;2022-08-23T02:17:26;25.10;73.20
33508;DHT22;25568;37.410;-122.096;2022-08-23T02:19:54;25.10;73.20
33508;DHT22;25568;37.410;-122.096;2022-08-23T02:22:22;25.10;73.10
33508;DHT22;25568;37.410;-122.096;2022-08-23T02:24:50;25.10;73.10
33508;DHT22;25568;37.410;-122.096;2022-08-23T02:27:18;25.10;72.90
33508;DHT22;25568;37.410;-122.096;2022-08-23T02:29:46;25.10;72.70
33508;DHT22;25568;37.410;-122.096;2022-08-23T02:32:15;25.10;72.70
33508;DHT22;25568;37.410;-122.096;2022-08-23T02:34:45;25.10;68.40
33508;DHT22;25568;37.410;-122.096;2022-08-23T02:37:13;25.00;69.20
33508;DHT22;25568;37.410;-122.096;2022-08-23T02:39:41;25.00;69.60
33508;DHT22;25568;37.410;-122.096;2022-08-23T02:42:09;25.00;69.10
33508;DHT22;25568;37.410;-122.096;2022-08-23T02:44:39;25.00;69.70
33508;DHT22;25568;37.410;-122.096;2022-08-23T02:47:07;24.90;68.90
33508;DHT22;25568;37.410;-122.096;2022-08-23T02:49:36;24.90;69.10
33508;DHT22;25568;37.410;-122.096;2022-08-23T02:52:06;24.90;69.50
33508;DHT22;25568;37.410;-122.096;2022-08-23T02:54:34;24.90;69.30
33508;DHT22;25568;37.410;-122.096;2022-08-23T02:57:03;24.90;68.70
33508;DHT22;25568;37.410;-122.096;2022-08-23T02:59:31;24.90;68.90
33508;DHT22;25568;37.410;-122.096;2022-08-23T03:01:59;24.90;69.40
33508;DHT22;25568;37.410;-122.096;2022-08-23T03:04:27;24.90;68.90
33508;DHT22;25568;37.410;-122.096;2022-08-23T03:06:55;24.90;68.50
33508;DHT22;25568;37.410;-122.096;2022-08-23T03:09:24;24.90;68.20
33508;DHT22;25568;37.410;-122.096;2022-08-23T03:11:52;24.90;68.00
33508;DHT22;25568;37.410;-122.096;2022-08-23T03:14:20;24.90;68.10
33508;DHT22;25568;37.410;-122.096;2022-08-23T03:16:49;24.90;67.10
33508;DHT22;25568;37.410;-122.096;2022-08-23T03:19:17;24.90;67.20
33508;DHT22;25568;37.410;-122.096;2022-08-23T03:21:45;24.90;68.30
33508;DHT22;25568;37.410;-122.096;2022-08-23T03:24:13;24.90;68.50
33508;DHT22;25568;37.410;-122.096;2022-08-23T03:26:43;24.90;68.10
33508;DHT22;25568;37.410;-122.096;2022-08-23T03:29:11;24.90;67.90
33508;DHT22;25568;37.410;-122.096;2022-08-23T03:31:39;24.90;67.80
33508;DHT22;25568;37.410;-122.096;2022-08-23T03:34:07;24.80;67.60
33508;DHT22;25568;37.410;-122.096;2022-08-23T03:36:35;24.90;67.30
33508;DHT22;25568;37.410;-122.096;2022-08-23T03:39:03;24.90;67.30
33508;DHT22;25568;37.410;-122.096;2022-08-23T03:41:32;24.80;67.30
33508;DHT22;25568;37.410;-122.096;2022-08-23T03:44:01;24.90;67.10
33508;DHT22;25568;37.410;-122.096;2022-08-23T05:25:22;24.90;66.80
33508;DHT22;25568;37.410;-122.096;2022-08-23T06:10:06;24.50;69.70
33508;DHT22;25568;37.410;-122.096;2022-08-23T06:12:34;22.20;59.50
33508;DHT22;25568;37.410;-122.096;2022-08-23T06:15:03;22.10;59.40
33508;DHT22;25568;37.410;-122.096;2022-08-23T06:47:06;22.00;59.10
33508;DHT22;25568;37.410;-122.096;2022-08-23T06:49:34;21.50;60.30
33508;DHT22;25568;37.410;-122.096;2022-08-23T06:52:02;21.40;60.60
33508;DHT22;25568;37.410;-122.096;2022-08-23T06:54:31;21.40;60.90
33508;DHT22;25568;37.410;-122.096;2022-08-23T06:57:00;21.30;60.50
33508;DHT22;25568;37.410;-122.096;2022-08-23T07:01:56;21.30;60.50
33508;DHT22;25568;37.410;-122.096;2022-08-23T07:04:26;21.20;60.00
33508;DHT22;25568;37.410;-122.096;2022-08-23T07:06:54;21.10;59.80
33508;DHT22;25568;37.410;-122.096;2022-08-23T07:09:22;21.00;59.80
33508;DHT22;25568;37.410;-122.096;2022-08-23T07:11:52;21.00;59.70
33508;DHT22;25568;37.410;-122.096;2022-08-23T07:14:20;21.00;59.60
33508;DHT22;25568;37.410;-122.096;2022-08-23T07:16:49;20.90;59.50
33508;DHT22;25568;37.410;-122.096;2022-08-23T07:19:18;20.90;59.50
33508;DHT22;25568;37.410;-122.096;2022-08-23T07:21:48;20.80;59.40
33508;DHT22;25568;37.410;-122.096;2022-08-23T07:24:16;20.80;61.10
33508;DHT22;25568;37.410;-122.096;2022-08-23T07:26:45;20.90;67.70
33508;DHT22;25568;37.410;-122.096;2022-08-23T07:29:14;21.00;70.90
33508;DHT22;25568;37.410;-122.096;2022-08-23T07:31:43;21.10;73.30
33508;DHT22;25568;37.410;-122.096;2022-08-23T07:34:13;21.20;75.30
33508;DHT22;25568;37.410;-122.096;2022-08-23T07:36:41;21.20;76.80
33508;DHT22;25568;37.410;-122.096;2022-08-23T07:39:12;21.30;78.20
33508;DHT22;25568;37.410;-122.096;2022-08-23T07:41:40;21.30;79.40
33508;DHT22;25568;37.410;-122.096;2022-08-23T07:44:08;21.40;80.50
33508;DHT22;25568;37.410;-122.096;2022-08-23T07:46:38;21.40;81.20
33508;DHT22;25568;37.410;-122.096;2022-08-23T07:49:06;21.40;81.80
33508;DHT22;25568;37.410;-122.096;2022-08-23T07:51:35;21.50;82.50
33508;DHT22;25568;37.410;-122.096;2022-08-23T07:54:05;21.50;83.00
33508;DHT22;25568;37.410;-122.096;2022-08-23T07:56:36;21.50;83.40
33508;DHT22;25568;37.410;-122.096;2022-08-23T07:59:04;21.50;83.70
33508;DHT22;25568;37.410;-122.096;2022-08-23T08:01:32;21.60;83.90
33508;DHT22;25568;37.410;-122.096;2022-08-23T08:04:01;21.60;84.00
33508;DHT22;25568;37.410;-122.096;2022-08-23T08:06:30;21.60;84.10
33508;DHT22;25568;37.410;-122.096;2022-08-23T08:08:58;21.60;84.10
33508;DHT22;25568;37.410;-122.096;2022-08-23T08:11:30;21.60;80.40
33508;DHT22;25568;37.410;-122.096;2022-08-23T08:14:01;21.40;74.90
33508;DHT22;25568;37.410;-122.096;2022-08-23T08:16:30;21.20;71.40
33508;DHT22;25568;37.410;-122.096;2022-08-23T08:18:59;21.10;69.30
33508;DHT22;25568;37.410;-122.096;2022-08-23T08:21:27;21.00;68.40
33508;DHT22;25568;37.410;-122.096;2022-08-23T08:23:55;21.00;66.80
33508;DHT22;25568;37.410;-122.096;2022-08-23T08:26:24;20.90;65.90
33508;DHT22;25568;37.410;-122.096;2022-08-23T08:28:52;20.80;65.20
33508;DHT22;25568;37.410;-122.096;2022-08-23T08:31:23;20.80;64.50
33508;DHT22;25568;37.410;-122.096;2022-08-23T08:33:51;20.70;64.30
33508;DHT22;25568;37.410;-122.096;2022-08-23T08:36:30;20.70;63.60
33508;DHT22;25568;37.410;-122.096;2022-08-23T08:39:17;20.60;67.10
33508;DHT22;25568;37.410;-122.096;2022-08-23T08:41:47;20.80;74.50
33508;DHT22;25568;37.410;-122.096;2022-08-23T08:44:33;20.90;76.80
33508;DHT22;25568;37.410;-122.096;2022-08-23T08:47:06;20.90;78.60
33508;DHT22;25568;37.410;-122.096;2022-08-23T08:49:35;21.00;80.20
33508;DHT22;25568;37.410;-122.096;2022-08-23T08:52:09;21.10;81.40
33508;DHT22;25568;37.410;-122.096;2022-08-23T08:54:39;21.10;82.40
33508;DHT22;25568;37.410;-122.096;2022-08-23T08:57:08;21.10;83.10
33508;DHT22;25568;37.410;-122.096;2022-08-23T08:59:41;21.20;83.80
33508;DHT22;25568;37.410;-122.096;2022-08-23T09:02:13;21.20;84.20
33508;DHT22;25568;37.410;-122.096;2022-08-23T09:04:43;21.20;84.50
33508;DHT22;25568;37.410;-122.096;2022-08-23T09:07:13;21.30;85.10
33508;DHT22;25568;37.410;-122.096;2022-08-23T09:09:51;21.30;85.30
33508;DHT22;25568;37.410;-122.096;2022-08-23T09:12:24;21.30;85.40
33508;DHT22;25568;37.410;-122.096;2022-08-23T09:15:02;21.30;85.40
33508;DHT22;25568;37.410;-122.096;2022-08-23T09:17:37;21.30;85.40
33508;DHT22;25568;37.410;-122.096;2022-08-23T09:20:07;21.40;85.80
33508;DHT22;25568;37.410;-122.096;2022-08-23T09:22:37;21.40;85.80
33508;DHT22;25568;37.410;-122.096;2022-08-23T09:25:07;21.40;85.80
33508;DHT22;25568;37.410;-122.096;2022-08-23T09:27:35;21.40;85.50
33508;DHT22;25568;37.410;-122.096;2022-08-23T09:30:04;21.40;85.80
33508;DHT22;25568;37.410;-122.096;2022-08-23T09:32:32;21.40;85.70
33508;DHT22;25568;37.410;-122.096;2022-08-23T09:35:06;21.40;85.50
33508;DHT22;25568;37.410;-122.096;2022-08-23T09:37:46;21.40;85.40
33508;DHT22;25568;37.410;-122.096;2022-08-23T09:40:16;21.50;85.60
33508;DHT22;25568;37.410;-122.096;2022-08-23T09:42:44;21.50;85.80
33508;DHT22;25568;37.410;-122.096;2022-08-23T09:45:23;21.50;85.80
33508;DHT22;25568;37.410;-122.096;2022-08-23T09:47:52;21.50;82.90
33508;DHT22;25568;37.410;-122.096;2022-08-23T09:50:24;21.20;76.80
33508;DHT22;25568;37.410;-122.096;2022-08-23T09:52:57;21.00;73.60
33508;DHT22;25568;37.410;-122.096;2022-08-23T09:55:27;20.80;71.60
33508;DHT22;25568;37.410;-122.096;2022-08-23T10:54:59;20.80;70.80
33508;DHT22;25568;37.410;-122.096;2022-08-23T10:57:32;21.20;87.10
33508;DHT22;25568;37.410;-122.096;2022-08-23T11:00:01;21.30;87.00
33508;DHT22;25568;37.410;-122.096;2022-08-23T11:02:33;21.30;87.00
33508;DHT22;25568;37.410;-122.096;2022-08-23T11:05:06;21.30;86.90
33508;DHT22;25568;37.410;-122.096;2022-08-23T11:07:35;21.30;86.90
33508;DHT22;25568;37.410;-122.096;2022-08-23T11:10:09;21.30;86.80
33508;DHT22;25568;37.410;-122.096;2022-08-23T11:12:49;21.30;86.80
33508;DHT22;25568;37.410;-122.096;2022-08-23T11:15:23;21.30;86.50
33508;DHT22;25568;37.410;-122.096;2022-08-23T11:17:53;21.30;86.30
33508;DHT22;25568;37.410;-122.096;2022-08-23T11:23:11;21.30;86.30
33508;DHT22;25568;37.410;-122.096;2022-08-23T11:25:41;21.40;86.30
33508;DHT22;25568;37.410;-122.096;2022-08-23T11:28:30;21.30;82.00
33508;DHT22;25568;37.410;-122.096;2022-08-23T11:31:17;21.10;76.60
33508;DHT22;25568;37.410;-122.096;2022-08-23T11:33:47;20.80;73.10
33508;DHT22;25568;37.410;-122.096;2022-08-23T17:19:19;21.90;86.50
33508;DHT22;25568;37.410;-122.096;2022-08-23T17:21:47;21.90;87.30
33508;DHT22;25568;37.410;-122.096;2022-08-23T17:24:16;22.00;87.20
33508;DHT22;25568;37.410;-122.096;2022-08-23T17:26:45;22.00;87.20
33508;DHT22;25568;37.410;-122.096;2022-08-23T17:31:43;22.00;86.30
33508;DHT22;25568;37.410;-122.096;2022-08-23T17:34:12;22.10;87.20
33508;DHT22;25568;37.410;-122.096;2022-08-23T17:36:45;22.20;86.10
33508;DHT22;25568;37.410;-122.096;2022-08-23T17:39:17;22.20;86.80
33508;DHT22;25568;37.410;-122.096;2022-08-23T17:41:46;22.20;86.90
33508;DHT22;25568;37.410;-122.096;2022-08-23T17:44:15;22.20;87.10
33508;DHT22;25568;37.410;-122.096;2022-08-23T17:46:45;22.20;86.70
33508;DHT22;25568;37.410;-122.096;2022-08-23T17:49:18;22.20;86.60
33508;DHT22;25568;37.410;-122.096;2022-08-23T17:51:49;22.20;86.00
33508;DHT22;25568;37.410;-122.096;2022-08-23T17:54:17;22.20;85.20
33508;DHT22;25568;37.410;-122.096;2022-08-23T17:56:46;22.20;84.60
33508;DHT22;25568;37.410;-122.096;2022-08-23T17:59:15;22.20;84.50
33508;DHT22;25568;37.410;-122.096;2022-08-23T18:01:44;22.20;84.20
33508;DHT22;25568;37.410;-122.096;2022-08-23T18:04:13;22.30;84.20
33508;DHT22;25568;37.410;-122.096;2022-08-23T18:06:41;22.20;84.00
33508;DHT22;25568;37.410;-122.096;2022-08-23T18:09:12;22.30;83.80
33508;DHT22;25568;37.410;-122.096;2022-08-23T18:11:41;22.30;83.60
33508;DHT22;25568;37.410;-122.096;2022-08-23T18:14:10;22.30;83.60
33508;DHT22;25568;37.410;-122.096;2022-08-23T18:16:39;22.30;83.60
33508;DHT22;25568;37.410;-122.096;2022-08-23T18:19:08;22.40;83.50
33508;DHT22;25568;37.410;-122.096;2022-08-23T18:21:37;22.40;83.30
33508;DHT22;25568;37.410;-122.096;2022-08-23T18:24:06;22.40;83.30
33508;DHT22;25568;37.410;-122.096;2022-08-23T18:26:37;22.40;83.40
33508;DHT22;25568;37.410;-122.096;2022-08-23T18:29:23;22.40;83.40
33508;DHT22;25568;37.410;-122.096;2022-08-23T18:31:52;22.50;83.40
33508;DHT22;25568;37.410;-122.096;2022-08-23T18:34:21;22.50;83.40
33508;DHT22;25568;37.410;-122.096;2022-08-23T18:36:51;22.50;83.50
33508;DHT22;25568;37.410;-122.096;2022-08-23T18:39:20;22.60;83.50
33508;DHT22;25568;37.410;-122.096;2022-08-23T18:41:51;22.60;83.60
33508;DHT22;25568;37.410;-122.096;2022-08-23T18:44:20;22.60;83.60
33508;DHT22;25568;37.410;-122.096;2022-08-23T18:46:48;22.60;83.70
33508;DHT22;25568;37.410;-122.096;2022-08-23T18:49:17;22.60;83.80
33508;DHT22;25568;37.410;-122.096;2022-08-23T18:51:46;22.60;83.70
33508;DHT22;25568;37.410;-122.096;2022-08-23T18:54:15;22.60;83.80
33508;DHT22;25568;37.410;-122.096;2022-08-23T18:56:43;22.70;83.80
33508;DHT22;25568;37.410;-122.096;2022-08-23T18:59:14;22.70;84.00
33508;DHT22;25568;37.410;-122.096;2022-08-23T19:01:43;22.70;83.80
33508;DHT22;25568;37.410;-122.096;2022-08-23T19:04:12;22.70;83.60
33508;DHT22;25568;37.410;-122.096;2022-08-23T19:06:41;22.70;83.50
33508;DHT22;25568;37.410;-122.096;2022-08-23T19:09:11;22.80;83.60
33508;DHT22;25568;37.410;-122.096;2022-08-23T19:11:40;22.80;83.50
33508;DHT22;25568;37.410;-122.096;2022-08-23T19:14:10;22.80;83.30
33508;DHT22;25568;37.410;-122.096;2022-08-23T19:16:41;22.80;83.10
33508;DHT22;25568;37.410;-122.096;2022-08-23T19:19:10;22.90;83.10
33508;DHT22;25568;37.410;-122.096;2022-08-23T19:21:38;22.90;83.00
33508;DHT22;25568;37.410;-122.096;2022-08-23T19:24:07;22.90;83.00
33508;DHT22;25568;37.410;-122.096;2022-08-23T19:26:36;23.00;82.80
33508;DHT22;25568;37.410;-122.096;2022-08-23T19:29:08;23.00;82.80
33508;DHT22;25568;37.410;-122.096;2022-08-23T19:31:37;23.00;82.80
33508;DHT22;25568;37.410;-122.096;2022-08-23T19:34:11;23.00;82.70
33508;DHT22;25568;37.410;-122.096;2022-08-23T19:36:40;23.00;82.70
33508;DHT22;25568;37.410;-122.096;2022-08-23T19:39:09;23.10;82.80
33508;DHT22;25568;37.410;-122.096;2022-08-23T19:41:37;23.20;82.80
33508;DHT22;25568;37.410;-122.096;2022-08-23T19:44:07;23.20;83.00
33508;DHT22;25568;37.410;-122.096;2022-08-23T19:46:36;23.20;83.10
33508;DHT22;25568;37.410;-122.096;2022-08-23T19:49:07;23.20;83.30
33508;DHT22;25568;37.410;-122.096;2022-08-23T19:51:38;23.30;83.50
33508;DHT22;25568;37.410;-122.096;2022-08-23T19:54:07;23.30;83.50
33508;DHT22;25568;37.410;-122.096;2022-08-23T19:56:39;23.30;83.40
33508;DHT22;25568;37.410;-122.096;2022-08-23T19:59:10;23.40;83.50
33508;DHT22;25568;37.410;-122.096;2022-08-23T20:01:39;23.40;83.50
33508;DHT22;25568;37.410;-122.096;2022-08-23T20:04:08;23.50;83.50
33508;DHT22;25568;37.410;-122.096;2022-08-23T20:06:40;23.50;83.10
33508;DHT22;25568;37.410;-122.096;2022-08-23T20:09:09;23.50;83.00
33508;DHT22;25568;37.410;-122.096;2022-08-23T20:11:38;23.50;82.60
33508;DHT22;25568;37.410;-122.096;2022-08-23T20:14:07;23.60;82.50
33508;DHT22;25568;37.410;-122.096;2022-08-23T20:16:37;23.60;82.20
33508;DHT22;25568;37.410;-122.096;2022-08-23T20:19:06;23.60;81.80
33508;DHT22;25568;37.410;-122.096;2022-08-23T20:21:35;23.70;81.50
33508;DHT22;25568;37.410;-122.096;2022-08-23T20:24:06;23.70;81.30
33508;DHT22;25568;37.410;-122.096;2022-08-23T20:26:38;23.70;81.00
33508;DHT22;25568;37.410;-122.096;2022-08-23T20:29:10;23.70;80.90
33508;DHT22;25568;37.410;-122.096;2022-08-23T20:31:45;23.70;81.00
33508;DHT22;25568;37.410;-122.096;2022-08-23T20:34:15;23.70;81.10
33508;DHT22;25568;37.410;-122.096;2022-08-23T20:36:43;23.80;81.00
33508;DHT22;25568;37.410;-122.096;2022-08-23T20:39:14;23.80;80.90
33508;DHT22;25568;37.410;-122.096;2022-08-23T20:41:43;23.80;80.40
33508;DHT22;25568;37.410;-122.096;2022-08-23T20:44:12;23.90;80.00
33508;DHT22;25568;37.410;-122.096;2022-08-23T20:46:41;23.90;79.30
33508;DHT22;25568;37.410;-122.096;2022-08-23T20:49:10;23.90;78.90
33508;DHT22;25568;37.410;-122.096;2022-08-23T20:51:39;23.90;78.80
33508;DHT22;25568;37.410;-122.096;2022-08-23T20:54:08;24.00;78.70
33508;DHT22;25568;37.410;-122.096;2022-08-23T20:56:39;24.00;79.10
33508;DHT22;25568;37.410;-122.096;2022-08-23T20:59:08;24.00;79.50
33508;DHT22;25568;37.410;-122.096;2022-08-23T21:01:38;24.10;79.40
33508;DHT22;25568;37.410;-122.096;2022-08-23T21:04:07;24.10;79.10
33508;DHT22;25568;37.410;-122.096;2022-08-23T21:06:38;24.10;78.90
33508;DHT22;25568;37.410;-122.096;2022-08-23T21:09:09;24.20;78.90
33508;DHT22;25568;37.410;-122.096;2022-08-23T21:11:44;24.20;78.70
33508;DHT22;25568;37.410;-122.096;2022-08-23T21:14:13;24.20;78.50
33508;DHT22;25568;37.410;-122.096;2022-08-23T21:16:42;24.20;78.60
33508;DHT22;25568;37.410;-122.096;2022-08-23T21:19:11;24.20;78.10
33508;DHT22;25568;37.410;-122.096;2022-08-23T21:21:40;24.00;77.20
33508;DHT22;25568;37.410;-122.096;2022-08-23T21:24:10;23.60;73.80
33508;DHT22;25568;37.410;-122.096;2022-08-23T21:26:38;22.90;71.10
33508;DHT22;25568;37.410;-122.096;2022-08-23T21:29:10;22.40;69.10
33508;DHT22;25568;37.410;-122.096;2022-08-23T21:31:38;21.90;67.40
33508;DHT22;25568;37.410;-122.096;2022-08-23T21:34:07;21.60;67.00
33508;DHT22;25568;37.410;-122.096;2022-08-23T21:36:37;21.40;66.20
33508;DHT22;25568;37.410;-122.096;2022-08-23T21:39:06;21.20;65.30
33508;DHT22;25568;37.410;-122.096;2022-08-23T21:41:37;21.00;65.30
33508;DHT22;25568;37.410;-122.096;2022-08-23T21:44:10;20.90;64.80
33508;DHT22;25568;37.410;-122.096;2022-08-23T21:46:39;20.70;64.00
33508;DHT22;25568;37.410;-122.096;2022-08-23T21:49:08;20.60;64.50
33508;DHT22;25568;37.410;-122.096;2022-08-23T21:51:37;20.90;71.10
33508;DHT22;25568;37.410;-122.096;2022-08-23T21:54:06;21.20;74.30
33508;DHT22;25568;37.410;-122.096;2022-08-23T21:56:36;21.40;76.10
33508;DHT22;25568;37.410;-122.096;2022-08-23T21:59:07;21.50;77.10
33508;DHT22;25568;37.410;-122.096;2022-08-23T22:01:38;21.60;77.20
33508;DHT22;25568;37.410;-122.096;2022-08-23T22:04:09;21.60;77.10
33508;DHT22;25568;37.410;-122.096;2022-08-23T22:06:39;21.60;76.80
33508;DHT22;25568;37.410;-122.096;2022-08-23T22:09:10;21.60;75.80
33508;DHT22;25568;37.410;-122.096;2022-08-23T22:11:41;21.60;75.30
33508;DHT22;25568;37.410;-122.096;2022-08-23T22:14:12;21.70;75.30
33508;DHT22;25568;37.410;-122.096;2022-08-23T22:16:43;21.80;74.50
33508;DHT22;25568;37.410;-122.096;2022-08-23T22:19:13;21.80;73.70
33508;DHT22;25568;37.410;-122.096;2022-08-23T22:21:42;21.90;73.10
33508;DHT22;25568;37.410;-122.096;2022-08-23T22:24:11;21.80;72.30
33508;DHT22;25568;37.410;-122.096;2022-08-23T22:26:41;21.80;71.80
33508;DHT22;25568;37.410;-122.096;2022-08-23T22:29:11;21.80;71.50
33508;DHT22;25568;37.410;-122.096;2022-08-23T22:31:42;21.80;71.30
33508;DHT22;25568;37.410;-122.096;2022-08-23T22:34:10;21.80;70.90
33508;DHT22;25568;37.410;-122.096;2022-08-23T22:36:39;22.00;72.30
33508;DHT22;25568;37.410;-122.096;2022-08-23T22:39:09;21.60;71.90
33508;DHT22;25568;37.410;-122.096;2022-08-23T22:41:37;21.30;72.00
33508;DHT22;25568;37.410;-122.096;2022-08-23T22:44:06;21.20;72.80
33508;DHT22;25568;37.410;-122.096;2022-08-23T22:46:35;21.10;73.50
33508;DHT22;25568;37.410;-122.096;2022-08-23T22:49:05;21.20;78.20
33508;DHT22;25568;37.410;-122.096;2022-08-23T22:51:35;21.50;82.20
33508;DHT22;25568;37.410;-122.096;2022-08-23T22:54:06;21.60;83.50
33508;DHT22;25568;37.410;-122.096;2022-08-23T22:56:39;21.70;82.70
33508;DHT22;25568;37.410;-122.096;2022-08-23T22:59:09;21.70;81.60
33508;DHT22;25568;37.410;-122.096;2022-08-23T23:01:41;21.70;78.70
33508;DHT22;25568;37.410;-122.096;2022-08-23T23:04:13;21.80;76.90
33508;DHT22;25568;37.410;-122.096;2022-08-23T23:06:42;21.80;75.90
33508;DHT22;25568;37.410;-122.096;2022-08-23T23:09:12;21.80;74.80
33508;DHT22;25568;37.410;-122.096;2022-08-23T23:11:41;21.80;74.00
33508;DHT22;25568;37.410;-122.096;2022-08-23T23:14:12;21.80;74.20
33508;DHT22;25568;37.410;-122.096;2022-08-23T23:16:41;22.00;75.70
33508;DHT22;25568;37.410;-122.096;2022-08-23T23:19:12;22.10;77.40
33508;DHT22;25568;37.410;-122.096;2022-08-23T23:21:55;22.30;79.30
33508;DHT22;25568;37.410;-122.096;2022-08-23T23:24:26;22.40;80.30
33508;DHT22;25568;37.410;-122.096;2022-08-23T23:26:56;22.00;78.40
33508;DHT22;25568;37.410;-122.096;2022-08-23T23:29:25;21.80;78.70
33508;DHT22;25568;37.410;-122.096;2022-08-23T23:31:54;21.80;79.20
33508;DHT22;25568;37.410;-122.096;2022-08-23T23:34:26;21.70;79.20
33508;DHT22;25568;37.410;-122.096;2022-08-23T23:36:55;21.60;79.30
33508;DHT22;25568;37.410;-122.096;2022-08-23T23:39:25;21.60;78.80
33508;DHT22;25568;37.410;-122.096;2022-08-23T23:41:55;21.50;78.40
33508;DHT22;25568;37.410;-122.096;2022-08-23T23:44:24;21.40;78.70
33508;DHT22;25568;37.410;-122.096;2022-08-23T23:46:53;21.50;80.90
33508;DHT22;25568;37.410;-122.096;2022-08-23T23:49:22;21.60;81.20
33508;DHT22;25568;37.410;-122.096;2022-08-23T23:51:52;21.60;81.70
33508;DHT22;25568;37.410;-122.096;2022-08-23T23:54:21;21.60;80.00
33508;DHT22;25568;37.410;-122.096;2022-08-23T23:56:49;21.70;79.60
33508;DHT22;25568;37.410;-122.096;2022-08-23T23:59:18;21.80;79.40
